Time;durP1;ratioP1;P1;durP2;ratioP2;P2;SDS_P1;SDS_P2;PMS_P1;PMS_P2;Temp;Humidity;BMP_temperature;BMP_pressure;BME280_temperature;BME280_humidity;BME280_pressure;Samples;Min_cycle;Max_cycle;Signal;HPM_P1;HPM_P2
2023/09/22 00:01:32;;;;;;;64.93;53.42;;;;;;;27.95;nan;98072.72;5025795;28;20049;-64
2023/09/22 00:04:01;;;;;;;59.25;50.78;;;;;;;27.98;nan;98069.34;5023149;28;20535;-64
2023/09/22 00:06:31;;;;;;;63.17;52.88;;;;;;;27.96;nan;98074.31;5029201;28;20110;-64
2023/09/22 00:09:00;;;;;;;60.78;52.92;;;;;;;27.97;nan;98078.63;5020349;28;20087;-64
2023/09/22 00:11:30;;;;;;;59.05;52.05;;;;;;;27.97;nan;98075.13;5035328;28;20049;-64
2023/09/22 00:13:59;;;;;;;62.88;52.75;;;;;;;27.94;nan;98076.53;5045746;28;20075;-64
2023/09/22 00:16:29;;;;;;;60.20;49.80;;;;;;;27.92;nan;98073.38;5024239;28;20055;-64
2023/09/22 00:18:59;;;;;;;61.65;50.88;;;;;;;27.98;nan;98073.97;5025021;28;20428;-64
2023/09/22 00:21:28;;;;;;;62.97;51.67;;;;;;;28.01;nan;98070.63;5045860;28;20377;-64
2023/09/22 00:23:57;;;;;;;57.85;50.33;;;;;;;27.99;nan;98070.94;5029028;28;20052;-65
2023/09/22 00:26:27;;;;;;;60.05;49.80;;;;;;;27.91;nan;98073.66;5023028;28;20064;-64
2023/09/22 00:28:59;;;;;;;59.28;50.80;;;;;;;27.90;nan;98069.34;5025551;28;20771;-64
2023/09/22 00:31:28;;;;;;;64.03;52.60;;;;;;;27.91;nan;98079.91;5021380;28;20057;-64
2023/09/22 00:33:58;;;;;;;59.58;50.85;;;;;;;27.91;nan;98081.84;5004986;28;20088;-64
2023/09/22 00:36:27;;;;;;;58.85;50.53;;;;;;;27.89;nan;98081.34;5009284;28;20067;-64
2023/09/22 00:38:57;;;;;;;58.92;52.03;;;;;;;27.87;nan;98081.69;5011914;28;20057;-64
2023/09/22 00:41:27;;;;;;;58.63;50.13;;;;;;;27.93;nan;98082.31;5025119;28;20064;-64
2023/09/22 00:43:56;;;;;;;61.05;52.45;;;;;;;27.86;nan;98084.72;5045440;28;20053;-64
2023/09/22 00:46:26;;;;;;;59.55;50.50;;;;;;;27.85;nan;98077.66;5027351;28;20075;-64
2023/09/22 00:48:57;;;;;;;59.63;51.67;;;;;;;27.83;nan;98078.00;5017159;28;20132;-65
2023/09/22 00:51:27;;;;;;;60.72;50.78;;;;;;;27.89;nan;98076.69;5025011;28;20436;-64
2023/09/22 00:53:57;;;;;;;57.53;50.53;;;;;;;27.87;nan;98075.44;5035479;28;20111;-64
2023/09/22 00:56:27;;;;;;;59.38;51.13;;;;;;;27.90;nan;98077.50;5013254;28;20037;-64
2023/09/22 00:58:57;;;;;;;61.20;49.85;;;;;;;27.89;nan;98073.19;5025676;28;20464;-64
2023/09/22 01:01:26;;;;;;;58.58;50.38;;;;;;;27.98;nan;98079.44;5022368;28;20468;-64
2023/09/22 01:03:56;;;;;;;55.63;49.30;;;;;;;27.98;nan;98074.78;5024998;28;20045;-65
2023/09/22 01:06:26;;;;;;;61.08;50.15;;;;;;;28.01;nan;98076.09;5024545;28;20045;-64
2023/09/22 01:08:56;;;;;;;59.55;49.58;;;;;;;27.98;nan;98068.53;5000458;28;20053;-64
2023/09/22 01:11:26;;;;;;;57.35;50.50;;;;;;;27.95;nan;98072.72;5003432;28;20804;-65
2023/09/22 01:13:55;;;;;;;58.85;50.60;;;;;;;27.99;nan;98073.66;5038347;28;20053;-65
2023/09/22 01:16:24;;;;;;;61.47;49.97;;;;;;;27.95;nan;98071.91;5024238;28;20053;-64
2023/09/22 01:18:54;;;;;;;67.68;51.42;;;;;;;27.98;nan;98079.44;5034507;28;20536;-64
2023/09/22 01:21:30;;;;;;;61.15;49.72;;;;;;;28.01;nan;98078.81;5043963;28;20487;-65
2023/09/22 01:23:59;;;;;;;59.75;49.67;;;;;;;28.05;nan;98082.47;5006401;28;20663;-64
2023/09/22 01:26:28;;;;;;;56.42;47.42;;;;;;;28.04;nan;98087.13;5001875;28;20041;-64
2023/09/22 01:28:59;;;;;;;54.78;48.53;;;;;;;28.14;nan;98088.75;5007938;28;20679;-64
2023/09/22 01:31:28;;;;;;;56.55;50.35;;;;;;;28.20;nan;98087.44;5017127;28;20092;-65
2023/09/22 01:33:57;;;;;;;56.58;49.38;;;;;;;28.21;nan;98090.97;5024383;28;20556;-65
2023/09/22 01:36:27;;;;;;;63.72;52.47;;;;;;;28.21;nan;98099.16;5019912;28;20076;-64
2023/09/22 01:39:01;;;;;;;58.13;50.53;;;;;;;28.20;nan;98092.91;5023130;28;20464;-64
2023/09/22 01:41:31;;;;;;;54.70;48.65;;;;;;;28.34;nan;98109.88;5022266;28;20045;-64
2023/09/22 01:44:00;;;;;;;56.08;50.00;;;;;;;28.43;nan;98102.50;5023268;28;20057;-65
2023/09/22 01:46:29;;;;;;;57.17;49.38;;;;;;;28.46;nan;98104.56;5016126;28;20068;-64
2023/09/22 01:48:58;;;;;;;57.90;51.28;;;;;;;28.57;nan;98110.47;5020844;28;20045;-64
2023/09/22 01:51:28;;;;;;;52.67;46.88;;;;;;;28.62;nan;98110.31;5012671;28;20053;-64
2023/09/22 01:53:57;;;;;;;57.38;48.15;;;;;;;28.71;nan;98115.75;5029968;28;20067;-66
2023/09/22 01:56:26;;;;;;;54.60;48.65;;;;;;;28.79;nan;98104.84;5021562;28;20053;-65
2023/09/22 01:58:56;;;;;;;57.20;48.40;;;;;;;28.86;nan;98109.75;5012423;28;20146;-65
2023/09/22 02:01:25;;;;;;;51.50;46.05;;;;;;;28.97;nan;98114.56;5022641;28;20119;-65
2023/09/22 02:03:55;;;;;;;51.90;45.80;;;;;;;29.00;nan;98115.81;5011622;28;20053;-65
2023/09/22 02:06:25;;;;;;;49.60;44.30;;;;;;;29.04;nan;98119.50;5004798;28;20046;-66
2023/09/22 02:08:54;;;;;;;51.88;45.13;;;;;;;29.00;nan;98113.09;5021848;28;20047;-65
2023/09/22 02:11:40;;;;;;;49.45;41.80;;;;;;;28.99;nan;98117.75;4998492;28;20069;-65
2023/09/22 02:14:10;;;;;;;49.75;44.00;;;;;;;28.97;nan;98116.47;5039454;28;20510;-65
2023/09/22 02:16:40;;;;;;;48.92;43.28;;;;;;;29.13;nan;98117.53;5042461;28;20145;-65
2023/09/22 02:19:09;;;;;;;50.05;42.92;;;;;;;29.14;nan;98110.94;5025459;28;20527;-66
2023/09/22 02:21:39;;;;;;;47.60;42.42;;;;;;;29.27;nan;98120.84;5031351;28;20041;-65
2023/09/22 02:24:09;;;;;;;51.85;43.55;;;;;;;29.38;nan;98121.31;5039516;28;20894;-65
2023/09/22 02:26:38;;;;;;;48.58;42.53;;;;;;;29.42;nan;98123.03;5037767;28;20049;-65
2023/09/22 02:29:07;;;;;;;51.67;42.63;;;;;;;29.48;nan;98120.91;5008575;28;20040;-65
2023/09/22 02:31:37;;;;;;;46.30;41.28;;;;;;;29.60;nan;98122.94;5046543;28;20058;-65
2023/09/22 02:34:06;;;;;;;53.13;41.45;;;;;;;29.65;nan;98120.03;5054633;28;20135;-65
2023/09/22 02:36:35;;;;;;;48.50;40.70;;;;;;;29.56;nan;98122.81;5049848;28;20049;-65
2023/09/22 02:39:06;;;;;;;42.55;37.95;;;;;;;29.50;nan;98118.66;5061518;28;20044;-65
2023/09/22 02:41:52;;;;;;;41.30;36.53;;;;;;;29.73;nan;98121.91;5059222;28;20119;-65
2023/09/22 02:44:22;;;;;;;39.03;33.42;;;;;;;29.77;nan;98120.91;5044615;28;20064;-65
2023/09/22 02:46:51;;;;;;;36.70;30.33;;;;;;;29.79;nan;98117.81;5042793;28;20084;-65
2023/09/22 02:49:21;;;;;;;39.70;32.50;;;;;;;29.88;nan;98132.25;5048247;28;20472;-65
2023/09/22 02:51:50;;;;;;;37.47;31.02;;;;;;;30.05;nan;98139.53;5037601;28;20054;-66
2023/09/22 02:54:19;;;;;;;42.80;31.48;;;;;;;30.02;nan;98140.19;5049783;28;20067;-65
2023/09/22 02:56:49;;;;;;;39.95;31.15;;;;;;;30.04;nan;98148.84;5038862;28;20052;-65
2023/09/22 02:59:19;;;;;;;42.20;30.98;;;;;;;30.09;nan;98140.47;5032049;28;20409;-65
2023/09/22 03:01:49;;;;;;;43.20;31.95;;;;;;;30.02;nan;98151.09;5038418;28;20720;-66
2023/09/22 03:04:18;;;;;;;35.03;30.73;;;;;;;30.19;nan;98145.50;5049938;28;20124;-64
2023/09/22 03:06:47;;;;;;;38.90;29.63;;;;;;;30.17;nan;98148.56;5037681;28;20062;-64
2023/09/22 03:09:18;;;;;;;36.78;30.33;;;;;;;30.20;nan;98153.38;5064944;28;20137;-65
2023/09/22 03:11:47;;;;;;;36.42;30.25;;;;;;;30.35;nan;98149.22;5043025;28;20508;-64
2023/09/22 03:14:17;;;;;;;37.40;31.30;;;;;;;30.37;nan;98146.94;5058348;28;20084;-65
2023/09/22 03:16:46;;;;;;;37.15;29.00;;;;;;;30.40;nan;98146.28;5043468;28;20057;-65
2023/09/22 03:19:15;;;;;;;41.47;28.25;;;;;;;30.52;nan;98151.03;5045919;28;20056;-65
2023/09/22 03:21:45;;;;;;;38.75;28.60;;;;;;;30.56;nan;98149.22;5044297;28;20152;-64
2023/09/22 03:24:14;;;;;;;40.35;27.83;;;;;;;30.61;nan;98149.00;5027713;28;20060;-64
2023/09/22 03:26:46;;;;;;;37.13;27.52;;;;;;;30.72;nan;98147.44;5043044;28;20138;-64
2023/09/22 03:29:15;;;;;;;36.40;28.20;;;;;;;30.92;nan;98162.19;5045754;28;20048;-65
2023/09/22 03:31:45;;;;;;;32.15;27.88;;;;;;;31.07;nan;98156.91;5045656;28;20088;-65
2023/09/22 03:34:15;;;;;;;35.53;25.67;;;;;;;31.03;nan;98149.69;5028266;28;20172;-66
2023/09/22 03:36:44;;;;;;;32.90;25.77;;;;;;;31.02;nan;98154.41;5045250;28;20040;-65
2023/09/22 03:39:14;;;;;;;30.38;24.05;;;;;;;31.20;nan;98157.72;5026233;28;20053;-65
2023/09/22 03:41:44;;;;;;;25.15;21.75;;;;;;;31.13;nan;98158.28;5028368;28;20107;-65
2023/09/22 03:44:14;;;;;;;23.33;18.33;;;;;;;31.23;nan;98158.97;5038701;28;20046;-66
2023/09/22 03:46:43;;;;;;;27.00;21.25;;;;;;;31.29;nan;98160.34;5037195;28;20073;-64
2023/09/22 03:49:12;;;;;;;34.30;22.05;;;;;;;31.34;nan;98154.63;5056340;28;20435;-65
2023/09/22 03:51:43;;;;;;;27.52;20.13;;;;;;;31.36;nan;98155.09;5037916;28;20053;-65
2023/09/22 03:54:12;;;;;;;18.60;15.90;;;;;;;31.45;nan;98161.25;5024555;28;20560;-66
2023/09/22 03:56:41;;;;;;;20.17;15.95;;;;;;;31.48;nan;98155.09;5050600;28;20138;-65
2023/09/22 03:59:12;;;;;;;21.33;17.15;;;;;;;31.62;nan;98164.59;5044366;28;20061;-65
2023/09/22 04:01:42;;;;;;;19.30;15.80;;;;;;;31.56;nan;98165.16;5059811;28;20053;-65
2023/09/22 04:04:12;;;;;;;21.27;16.15;;;;;;;31.48;nan;98171.53;5038829;28;20458;-65
2023/09/22 04:06:42;;;;;;;18.42;15.77;;;;;;;31.64;nan;98172.47;5038239;28;20485;-66
2023/09/22 04:09:11;;;;;;;22.50;16.75;;;;;;;31.75;nan;98173.59;5013811;28;20049;-65
2023/09/22 04:11:40;;;;;;;21.58;15.85;;;;;;;31.89;nan;98181.47;5044618;28;20170;-65
2023/09/22 04:14:10;;;;;;;19.27;17.25;;;;;;;31.98;nan;98174.72;5044566;28;20081;-66
2023/09/22 04:16:39;;;;;;;18.38;15.95;;;;;;;32.03;nan;98174.47;5031415;28;20052;-65
2023/09/22 04:19:09;;;;;;;22.58;15.10;;;;;;;31.93;nan;98182.38;5049876;28;20144;-66
2023/09/22 04:21:43;;;;;;;20.15;17.13;;;;;;;32.03;nan;98176.41;5041097;28;20368;-66
2023/09/22 04:24:15;;;;;;;17.80;16.08;;;;;;;32.22;nan;98179.34;5040864;28;20456;-66
2023/09/22 04:26:44;;;;;;;22.65;16.77;;;;;;;32.60;nan;98187.13;5034751;28;20045;-66
2023/09/22 04:29:14;;;;;;;20.80;15.30;;;;;;;32.53;nan;98182.22;5037399;28;20037;-66
2023/09/22 04:31:44;;;;;;;24.35;17.75;;;;;;;32.80;nan;98182.59;5032893;28;20053;-66
2023/09/22 04:34:14;;;;;;;18.90;13.88;;;;;;;33.02;nan;98182.00;5039168;28;20052;-65
2023/09/22 04:36:43;;;;;;;16.50;13.25;;;;;;;33.27;nan;98188.97;5039556;28;21223;-65
2023/09/22 04:39:14;;;;;;;19.25;12.73;;;;;;;33.36;nan;98186.84;5035971;28;20045;-67
2023/09/22 04:41:44;;;;;;;18.52;13.95;;;;;;;33.35;nan;98188.00;5037095;28;20059;-65
2023/09/22 04:44:13;;;;;;;20.70;13.60;;;;;;;33.69;nan;98200.22;5029394;28;20053;-66
2023/09/22 04:46:44;;;;;;;15.90;13.07;;;;;;;33.87;nan;98194.34;5033893;28;20070;-66
2023/09/22 04:49:14;;;;;;;20.65;13.70;;;;;;;34.17;nan;98199.00;5043280;28;20479;-66
2023/09/22 04:51:43;;;;;;;17.63;13.35;;;;;;;34.51;nan;98202.06;5055900;28;20052;-65
2023/09/22 04:54:12;;;;;;;21.40;14.85;;;;;;;34.75;nan;98200.97;5048274;28;20708;-65
2023/09/22 04:56:41;;;;;;;17.88;13.32;;;;;;;34.64;nan;98203.50;5042963;28;20056;-66
2023/09/22 04:59:11;;;;;;;18.05;12.70;;;;;;;34.71;nan;98212.72;5056114;28;20048;-65
2023/09/22 05:01:41;;;;;;;17.35;12.50;;;;;;;34.81;nan;98216.84;5040973;28;20053;-64
2023/09/22 05:04:10;;;;;;;19.88;12.85;;;;;;;35.15;nan;98224.19;5033147;28;20037;-67
2023/09/22 05:06:43;;;;;;;15.32;11.50;;;;;;;35.44;nan;98222.75;5030447;28;20080;-66
2023/09/22 05:09:12;;;;;;;13.52;11.75;;;;;;;35.09;nan;98214.63;5044057;28;20044;-67
2023/09/22 05:11:41;;;;;;;15.60;11.00;;;;;;;34.60;nan;98206.19;5031261;28;20131;-67
2023/09/22 05:14:10;;;;;;;13.32;10.48;;;;;;;35.51;nan;98200.03;5035103;28;20048;-67
2023/09/22 05:16:41;;;;;;;19.88;10.95;;;;;;;35.33;nan;98205.25;5029794;28;20064;-67
2023/09/22 05:19:11;;;;;;;14.07;9.40;;;;;;;35.02;nan;98213.69;5037299;28;20045;-67
2023/09/22 05:21:41;;;;;;;15.60;11.48;;;;;;;34.18;nan;98219.84;5036356;28;20071;-66
2023/09/22 05:24:12;;;;;;;12.55;11.15;;;;;;;34.08;nan;98214.09;5035468;28;20048;-67
2023/09/22 05:26:57;;;;;;;13.45;10.70;;;;;;;33.75;nan;98214.50;5030298;28;20147;-67
2023/09/22 05:29:27;;;;;;;13.57;10.75;;;;;;;33.98;nan;98203.63;5030842;28;20061;-67
2023/09/22 05:31:56;;;;;;;13.43;10.90;;;;;;;34.24;nan;98203.84;5032157;28;20052;-66
2023/09/22 05:34:26;;;;;;;13.35;11.32;;;;;;;34.30;nan;98205.16;5038169;28;20664;-66
2023/09/22 05:36:55;;;;;;;12.77;10.57;;;;;;;34.25;nan;98195.25;5031519;28;20155;-66
2023/09/22 05:39:25;;;;;;;13.73;12.20;;;;;;;34.16;nan;98196.59;5030846;28;20049;-66
2023/09/22 05:41:54;;;;;;;14.18;12.35;;;;;;;34.12;nan;98195.72;5049170;28;20049;-66
2023/09/22 05:44:23;;;;;;;13.48;11.07;;;;;;;33.98;nan;98203.63;5039871;28;20045;-66
2023/09/22 05:46:55;;;;;;;11.48;10.30;;;;;;;33.95;nan;98207.09;5042285;28;20053;-66
2023/09/22 05:49:27;;;;;;;14.65;12.23;;;;;;;33.90;nan;98194.44;5032744;28;20057;-66
2023/09/22 05:51:57;;;;;;;11.75;10.52;;;;;;;33.82;nan;98190.72;5038648;28;20045;-66
2023/09/22 05:54:26;;;;;;;13.75;10.30;;;;;;;33.54;nan;98183.75;5019544;28;20087;-66
2023/09/22 05:56:56;;;;;;;11.55;10.30;;;;;;;33.70;nan;98184.53;5039147;28;20136;-66
2023/09/22 05:59:28;;;;;;;16.75;11.40;;;;;;;33.78;nan;98176.09;5028832;28;20420;-66
2023/09/22 06:01:59;;;;;;;12.88;11.23;;;;;;;33.92;nan;98169.34;5038553;28;20067;-66
2023/09/22 06:04:30;;;;;;;12.15;10.85;;;;;;;33.81;nan;98175.38;5041156;28;20064;-66
2023/09/22 06:07:02;;;;;;;12.15;10.65;;;;;;;34.04;nan;98169.19;5039480;28;20471;-66
2023/09/22 06:09:32;;;;;;;14.13;10.93;;;;;;;34.23;nan;98170.06;5030301;28;20049;-66
2023/09/22 06:12:01;;;;;;;13.27;10.70;;;;;;;34.26;nan;98171.28;5038850;28;20678;-67
2023/09/22 06:14:31;;;;;;;13.85;11.55;;;;;;;34.36;nan;98165.22;5007402;28;20053;-66
2023/09/22 06:17:00;;;;;;;15.45;11.73;;;;;;;34.54;nan;98163.63;5007784;28;20061;-66
2023/09/22 06:19:29;;;;;;;13.00;11.57;;;;;;;34.34;nan;98164.81;5008203;28;20049;-66
2023/09/22 06:21:59;;;;;;;16.08;11.80;;;;;;;33.95;nan;98152.91;5022027;28;20056;-66
2023/09/22 06:24:29;;;;;;;13.23;11.75;;;;;;;34.11;nan;98150.13;5014064;28;20060;-66
2023/09/22 06:26:59;;;;;;;13.15;11.60;;;;;;;34.40;nan;98141.34;5014262;28;20045;-67
2023/09/22 06:29:28;;;;;;;12.55;11.40;;;;;;;34.57;nan;98138.13;5017032;28;20041;-66
2023/09/22 06:31:57;;;;;;;12.40;11.20;;;;;;;34.56;nan;98138.50;5017315;28;20049;-66
2023/09/22 06:34:27;;;;;;;13.60;12.38;;;;;;;34.52;nan;98137.66;5020452;28;20049;-67
2023/09/22 06:36:57;;;;;;;13.00;11.65;;;;;;;34.51;nan;98139.59;5006791;28;20059;-68
2023/09/22 06:39:26;;;;;;;13.20;11.90;;;;;;;34.54;nan;98130.59;5007555;28;21566;-66
2023/09/22 06:41:56;;;;;;;13.23;11.82;;;;;;;34.58;nan;98141.69;4972684;28;20047;-68
2023/09/22 06:44:27;;;;;;;12.40;10.93;;;;;;;34.82;nan;98140.59;4976571;28;20061;-66
2023/09/22 06:46:57;;;;;;;12.80;11.50;;;;;;;34.65;nan;98133.56;4987683;28;20060;-66
2023/09/22 06:49:27;;;;;;;15.70;12.07;;;;;;;34.52;nan;98141.16;5018927;28;20049;-68
2023/09/22 06:51:57;;;;;;;17.25;12.27;;;;;;;34.21;nan;98138.59;5024118;28;20049;-68
2023/09/22 06:54:26;;;;;;;14.13;12.43;;;;;;;34.06;nan;98142.16;5011013;28;20706;-69
2023/09/22 06:56:56;;;;;;;13.13;11.90;;;;;;;33.93;nan;98132.47;5019921;28;20052;-68
2023/09/22 06:59:26;;;;;;;12.73;11.50;;;;;;;33.78;nan;98134.88;5021940;28;20045;-69
2023/09/22 07:01:55;;;;;;;14.18;12.68;;;;;;;33.72;nan;98125.34;5008953;28;20045;-69
2023/09/22 07:04:24;;;;;;;13.23;12.02;;;;;;;33.69;nan;98114.25;5018618;28;20127;-69
2023/09/22 07:06:54;;;;;;;17.35;12.98;;;;;;;33.83;nan;98107.13;5017072;28;20053;-68
2023/09/22 07:09:24;;;;;;;14.77;13.32;;;;;;;33.68;nan;98115.44;5021719;28;20680;-70
2023/09/22 07:12:10;;;;;;;20.25;11.32;;;;;;;31.31;nan;98120.56;5014143;28;20037;-69
2023/09/22 07:14:40;;;;;;;17.98;11.60;;;;;;;30.50;nan;98109.56;5041872;28;20044;-72
2023/09/22 07:17:09;;;;;;;18.85;10.60;;;;;;;30.50;nan;98115.03;5032695;28;20051;-71
2023/09/22 07:19:39;;;;;;;15.10;10.20;;;;;;;29.38;nan;98110.38;5045284;28;20091;-66
2023/09/22 07:22:08;;;;;;;14.73;9.88;;;;;;;29.28;nan;98097.88;5039515;28;20045;-68
2023/09/22 07:24:38;;;;;;;16.52;10.68;;;;;;;28.80;nan;98102.91;5042245;28;20420;-68
2023/09/22 07:27:24;;;;;;;12.52;9.85;;;;;;;28.47;nan;98111.59;5033518;28;20213;-66
2023/09/22 07:29:53;;;;;;;14.00;9.32;;;;;;;27.95;nan;98126.34;5038309;28;20146;-67
2023/09/22 07:32:23;;;;;;;11.60;9.32;;;;;;;28.26;nan;98128.94;5033099;28;20149;-67
2023/09/22 07:34:53;;;;;;;17.13;9.52;;;;;;;27.79;nan;98131.47;5034959;28;20045;-66
2023/09/22 07:37:22;;;;;;;18.90;9.02;;;;;;;27.45;nan;98134.88;5024184;28;20064;-68
2023/09/22 07:39:51;;;;;;;19.90;10.35;;;;;;;26.46;nan;98170.66;5023836;28;20100;-67
2023/09/22 07:42:21;;;;;;;16.20;9.77;;;;;;;25.75;nan;98169.53;5029560;28;20041;-68
2023/09/22 07:44:50;;;;;;;13.02;10.57;;;;;;;25.44;nan;98125.16;5039308;28;20056;-68
2023/09/22 07:47:19;;;;;;;18.00;12.00;;;;;;;25.05;nan;98121.00;5036578;28;20103;-69
2023/09/22 07:49:54;;;;;;;15.15;12.00;;;;;;;24.98;nan;98115.19;5029332;28;20068;-69
2023/09/22 07:52:24;;;;;;;17.77;12.68;;;;;;;24.65;nan;98119.03;5021938;28;20745;-69
2023/09/22 07:54:54;;;;;;;14.45;12.82;;;;;;;24.65;nan;98135.28;5032783;28;20065;-68
2023/09/22 07:57:23;;;;;;;13.95;11.95;;;;;;;24.79;nan;98132.59;5036013;28;20045;-68
2023/09/22 07:59:54;;;;;;;15.05;12.60;;;;;;;24.86;nan;98131.16;5025997;28;20137;-68
2023/09/22 08:02:24;;;;;;;14.60;12.90;;;;;;;25.14;nan;98120.34;5027517;28;20052;-69
2023/09/22 08:04:56;;;;;;;13.02;11.73;;;;;;;25.23;nan;98115.78;5043361;28;20054;-68
2023/09/22 08:07:27;;;;;;;12.20;10.50;;;;;;;25.34;nan;98112.59;5036403;28;20055;-68
2023/09/22 08:09:57;;;;;;;11.15;9.77;;;;;;;25.67;nan;98115.97;5041785;28;20347;-68
2023/09/22 08:12:26;;;;;;;13.43;9.50;;;;;;;25.72;nan;98113.16;5031240;28;20555;-69
2023/09/22 08:14:57;;;;;;;9.27;8.05;;;;;;;25.85;nan;98108.81;5035219;28;20811;-68
2023/09/22 08:17:26;;;;;;;9.30;8.18;;;;;;;25.81;nan;98124.91;5031707;28;20148;-68
2023/09/22 08:19:56;;;;;;;9.75;8.45;;;;;;;26.13;nan;98118.47;5045692;28;20056;-68
2023/09/22 08:22:26;;;;;;;9.25;7.47;;;;;;;26.07;nan;98122.41;5034202;28;20087;-68
2023/09/22 08:24:56;;;;;;;9.05;6.75;;;;;;;26.08;nan;98125.91;5035468;28;20048;-66
2023/09/22 08:27:29;;;;;;;7.75;6.95;;;;;;;26.28;nan;98129.00;5027711;28;20045;-67
2023/09/22 08:29:59;;;;;;;10.38;7.78;;;;;;;26.28;nan;98120.06;5030564;28;20048;-68
2023/09/22 08:32:29;;;;;;;8.45;7.50;;;;;;;26.41;nan;98116.47;5029712;28;20051;-67
2023/09/22 08:34:59;;;;;;;10.88;7.63;;;;;;;26.63;nan;98113.72;5038615;28;20103;-68
2023/09/22 08:37:32;;;;;;;9.88;8.10;;;;;;;26.64;nan;98101.72;5046050;28;20096;-68
2023/09/22 08:40:04;;;;;;;9.55;8.65;;;;;;;26.79;nan;98081.50;5027086;28;20044;-67
2023/09/22 08:42:34;;;;;;;9.63;8.70;;;;;;;27.13;nan;98068.06;5044807;28;20053;-68
2023/09/22 08:45:06;;;;;;;9.27;8.38;;;;;;;27.16;nan;98055.78;5034979;28;20791;-67
2023/09/22 08:47:40;;;;;;;9.63;8.60;;;;;;;27.25;nan;98048.44;5038803;28;20098;-69
2023/09/22 08:50:17;;;;;;;9.20;8.30;;;;;;;27.29;nan;98041.25;5044363;28;20053;-68
2023/09/22 08:52:52;;;;;;;9.13;8.27;;;;;;;27.39;nan;98053.75;5034892;28;20049;-69
2023/09/22 08:55:23;;;;;;;8.82;7.93;;;;;;;27.49;nan;98069.78;5046037;28;20045;-68
2023/09/22 08:57:53;;;;;;;9.20;8.10;;;;;;;27.85;nan;98091.28;5031946;28;20041;-67
2023/09/22 09:00:26;;;;;;;8.93;8.02;;;;;;;27.90;nan;98083.75;5036170;28;20106;-67
2023/09/22 09:03:00;;;;;;;10.02;8.90;;;;;;;27.96;nan;98085.22;5048576;28;20044;-68
2023/09/22 09:05:32;;;;;;;7.40;6.70;;;;;;;27.56;nan;98076.38;5041419;28;20051;-68
2023/09/22 09:08:15;;;;;;;9.25;7.20;;;;;;;27.66;nan;98067.13;5035144;28;20049;-68
2023/09/22 09:10:49;;;;;;;7.88;6.38;;;;;;;27.69;nan;98069.19;5034608;28;20053;-66
2023/09/22 09:13:27;;;;;;;8.63;6.45;;;;;;;27.56;nan;98078.28;5029531;28;20068;-69
2023/09/22 09:15:58;;;;;;;7.82;7.03;;;;;;;27.63;nan;98067.72;5011033;28;20049;-68
2023/09/22 09:18:29;;;;;;;7.60;6.07;;;;;;;27.57;nan;98066.31;5021044;28;20041;-66
2023/09/22 09:21:11;;;;;;;10.65;6.78;;;;;;;27.65;nan;98052.69;5021134;28;20063;-67
2023/09/22 09:23:56;;;;;;;9.90;6.90;;;;;;;27.37;nan;98035.03;5020544;28;20144;-67
2023/09/22 09:26:31;;;;;;;7.32;6.65;;;;;;;27.05;nan;98019.91;5023107;28;20831;-67
2023/09/22 09:29:02;;;;;;;8.18;7.10;;;;;;;27.04;nan;98012.88;5037162;28;20076;-67
2023/09/22 09:31:46;;;;;;;11.33;7.37;;;;;;;27.06;nan;98024.25;5025899;28;20464;-67
2023/09/22 09:34:17;;;;;;;10.27;9.15;;;;;;;27.16;nan;98042.19;5022475;28;20049;-68
2023/09/22 09:37:14;;;;;;;11.18;10.18;;;;;;;27.30;nan;98042.88;5015529;28;20064;-68
2023/09/22 09:40:10;;;;;;;13.15;9.43;;;;;;;27.49;nan;98029.78;5026117;28;20365;-68
2023/09/22 09:42:42;;;;;;;11.43;9.75;;;;;;;27.24;nan;98016.94;5017729;28;20583;-69
2023/09/22 09:45:14;;;;;;;14.23;9.20;;;;;;;27.13;nan;98002.06;5036062;28;20053;-69
2023/09/22 09:47:47;;;;;;;9.57;8.65;;;;;;;27.09;nan;97999.16;5028674;28;20060;-67
2023/09/22 09:50:20;;;;;;;9.05;8.15;;;;;;;27.00;nan;98021.97;5016330;28;20042;-67
2023/09/22 09:52:57;;;;;;;9.68;8.13;;;;;;;27.39;nan;98024.66;5015987;28;20077;-68
2023/09/22 09:55:28;;;;;;;11.35;8.45;;;;;;;27.52;nan;98018.28;5021815;28;20099;-68
2023/09/22 09:57:59;;;;;;;11.07;9.20;;;;;;;27.57;nan;98003.72;5020943;28;20045;-67
2023/09/22 10:00:35;;;;;;;10.43;9.32;;;;;;;27.34;nan;97991.34;5022694;28;20041;-69
2023/09/22 10:03:08;;;;;;;10.52;9.50;;;;;;;27.34;nan;97983.19;5000729;28;20137;-67
2023/09/22 10:05:38;;;;;;;11.65;9.30;;;;;;;27.43;nan;97971.22;5030441;28;20054;-67
2023/09/22 10:08:11;;;;;;;10.57;8.95;;;;;;;27.68;nan;97956.00;5020553;28;20053;-68
2023/09/22 10:10:41;;;;;;;;;;;;;;;27.69;nan;97939.38;5008028;28;20055;-66
2023/09/22 10:13:10;;;;;;;10.93;9.27;;;;;;;27.99;nan;97939.47;5022875;28;20014;-67
2023/09/22 10:16:08;;;;;;;12.45;9.82;;;;;;;27.75;nan;97931.81;5027360;28;20480;-68
2023/09/22 10:18:56;;;;;;;11.65;10.50;;;;;;;27.82;nan;97928.63;5028756;28;20570;-68
2023/09/22 10:21:29;;;;;;;12.70;10.90;;;;;;;27.95;nan;97947.50;5029626;28;20045;-68
2023/09/22 10:24:32;;;;;;;13.35;10.60;;;;;;;27.66;nan;97955.56;5032430;28;20107;-67
2023/09/22 10:27:28;;;;;;;;;;;;;;;27.74;nan;97967.53;5032888;28;20651;-66
2023/09/22 10:29:57;;;;;;;11.80;10.70;;;;;;;27.92;nan;97960.94;5019443;28;20021;-67
2023/09/22 10:32:27;;;;;;;16.95;11.38;;;;;;;28.05;nan;97943.63;5026548;28;20041;-68
2023/09/22 10:34:56;;;;;;;14.55;11.35;;;;;;;27.84;nan;97929.09;5040785;28;20520;-67
2023/09/22 10:37:32;;;;;;;14.65;12.38;;;;;;;27.85;nan;97920.59;5025818;28;20068;-68
2023/09/22 10:40:18;;;;;;;13.35;10.00;;;;;;;27.83;nan;97903.00;5023548;28;20131;-67
2023/09/22 10:42:52;;;;;;;11.65;9.52;;;;;;;28.18;nan;97887.38;5006767;28;20068;-67
2023/09/22 10:45:25;;;;;;;11.73;9.40;;;;;;;27.92;nan;97888.25;5019834;28;20053;-67
2023/09/22 10:47:58;;;;;;;10.05;8.65;;;;;;;28.15;nan;97893.50;5025776;28;20787;-68
2023/09/22 10:50:33;;;;;;;10.57;8.65;;;;;;;28.06;nan;97913.31;5027193;28;20131;-67
2023/09/22 10:53:19;;;;;;;12.65;8.77;;;;;;;27.93;nan;97927.94;5025052;28;20457;-68
2023/09/22 10:55:48;;;;;;;10.57;8.70;;;;;;;27.98;nan;97927.78;5039119;28;20045;-67
2023/09/22 10:58:20;;;;;;;10.73;8.98;;;;;;;28.05;nan;97938.97;5030140;28;20053;-68
2023/09/22 11:00:58;;;;;;;10.77;9.27;;;;;;;28.06;nan;97931.59;5027103;28;20060;-67
2023/09/22 11:03:28;;;;;;;12.85;9.65;;;;;;;28.24;nan;97952.22;5025323;28;20467;-68
2023/09/22 11:05:59;;;;;;;11.38;10.07;;;;;;;28.44;nan;97964.34;5026022;28;20540;-67
2023/09/22 11:08:28;;;;;;;11.65;10.55;;;;;;;28.23;nan;97955.28;5028144;28;20068;-68
2023/09/22 11:10:59;;;;;;;13.13;10.23;;;;;;;28.31;nan;97962.63;5022542;28;20050;-67
2023/09/22 11:13:28;;;;;;;12.27;10.98;;;;;;;28.33;nan;97950.28;5028892;28;20134;-67
2023/09/22 11:16:04;;;;;;;14.07;11.60;;;;;;;28.46;nan;97932.91;5039125;28;20064;-67
2023/09/22 11:18:35;;;;;;;15.30;11.77;;;;;;;28.51;nan;97930.00;5046654;28;20041;-67
2023/09/22 11:21:10;;;;;;;12.55;11.13;;;;;;;28.51;nan;97910.94;5045578;28;20041;-67
2023/09/22 11:23:40;;;;;;;15.88;12.10;;;;;;;28.52;nan;97895.38;5046869;28;20040;-67
2023/09/22 11:26:12;;;;;;;15.32;12.82;;;;;;;28.68;nan;97887.47;5042766;28;20045;-67
2023/09/22 11:28:48;;;;;;;13.90;12.45;;;;;;;28.71;nan;97893.06;5041237;28;20053;-67
2023/09/22 11:31:21;;;;;;;16.42;13.48;;;;;;;28.74;nan;97897.84;5042895;28;20052;-66
2023/09/22 11:34:04;;;;;;;15.97;14.03;;;;;;;28.61;nan;97900.78;5039895;28;20052;-67
2023/09/22 11:36:52;;;;;;;14.65;13.30;;;;;;;28.61;nan;97906.22;5036597;28;20049;-68
2023/09/22 11:39:30;;;;;;;16.45;13.32;;;;;;;28.61;nan;97895.34;5030425;28;20483;-68
2023/09/22 11:42:01;;;;;;;16.83;14.30;;;;;;;28.54;nan;97899.41;5048136;28;20390;-67
2023/09/22 11:44:30;;;;;;;18.52;14.45;;;;;;;28.64;nan;97906.38;5044521;28;20045;-68
2023/09/22 11:47:02;;;;;;;18.98;15.85;;;;;;;28.62;nan;97905.13;5044139;28;20652;-68
2023/09/22 11:49:36;;;;;;;14.52;13.05;;;;;;;28.55;nan;97873.72;5046871;28;20072;-68
2023/09/22 11:52:07;;;;;;;16.92;14.52;;;;;;;28.76;nan;97881.19;5014324;28;20041;-65
2023/09/22 11:54:36;;;;;;;16.80;13.73;;;;;;;28.79;nan;97881.31;5045601;28;20041;-68
2023/09/22 11:57:05;;;;;;;15.00;13.57;;;;;;;28.79;nan;97896.88;5040773;28;20048;-68